Terminal Aerodrome Forecast
Issued by NWS

Home | Current Version | Previous Version | Text Only | Print | Product List | Glossary On
Versions: 1 2 3 4 5 6 7 8 9 10 11 12 13 14 15 16 17 18 19 20 21 22 23 24 25 26 27 28 29 30 31 32 33 34 35 36 37 38 39 40 41 42 43 44 45 46 47 48 49
324
FTUS42 KGSP 231944 AAA
TAFHKY
TAF AMD
KHKY 231944Z 2320/2418 VRB03KT P6SM SCT040 BKN050
     FM240800 21003KT 6SM BR BKN060
     FM241100 20003KT 3SM BR BKN016
     FM241300 21005KT 2SM BR BKN009 PROB30 2413/2415 1SM -RA BR
      OVC004
     FM241500 21010KT P6SM BKN011 PROB30 2415/2417 2SM -SHRA OVC008=

USA.gov is the U.S. government's official web portal to all federal, state and local government web resources and services.